sensor_id;sensor_type;location;lat;lon;timestamp;temperature;humidity
18888;DHT22;9576;47.792;9.628;2023-03-11T00:01:22;4.20;99.90
18888;DHT22;9576;47.792;9.628;2023-03-11T00:04:24;4.20;99.90
18888;DHT22;9576;47.792;9.628;2023-03-11T00:07:26;4.20;99.90
18888;DHT22;9576;47.792;9.628;2023-03-11T00:10:31;4.20;99.90
18888;DHT22;9576;47.792;9.628;2023-03-11T00:13:33;4.10;99.90
18888;DHT22;9576;47.792;9.628;2023-03-11T00:16:36;4.20;99.90
18888;DHT22;9576;47.792;9.628;2023-03-11T00:19:38;4.10;99.90
18888;DHT22;9576;47.792;9.628;2023-03-11T00:22:40;4.10;99.90
18888;DHT22;9576;47.792;9.628;2023-03-11T00:25:45;4.10;99.90
18888;DHT22;9576;47.792;9.628;2023-03-11T00:28:47;4.10;99.90
18888;DHT22;9576;47.792;9.628;2023-03-11T00:31:49;4.10;99.90
18888;DHT22;9576;47.792;9.628;2023-03-11T00:34:51;4.10;99.90
18888;DHT22;9576;47.792;9.628;2023-03-11T00:37:54;4.10;99.90
18888;DHT22;9576;47.792;9.628;2023-03-11T00:40:58;4.00;99.90
18888;DHT22;9576;47.792;9.628;2023-03-11T00:44:01;4.10;99.90
18888;DHT22;9576;47.792;9.628;2023-03-11T00:47:03;4.10;99.90
18888;DHT22;9576;47.792;9.628;2023-03-11T00:50:06;4.00;99.90
18888;DHT22;9576;47.792;9.628;2023-03-11T00:53:09;4.00;99.90
18888;DHT22;9576;47.792;9.628;2023-03-11T00:56:14;4.00;99.90
18888;DHT22;9576;47.792;9.628;2023-03-11T00:59:16;4.10;99.90
18888;DHT22;9576;47.792;9.628;2023-03-11T01:02:18;4.00;99.90
18888;DHT22;9576;47.792;9.628;2023-03-11T01:05:22;4.10;99.90
18888;DHT22;9576;47.792;9.628;2023-03-11T01:08:25;4.10;99.90
18888;DHT22;9576;47.792;9.628;2023-03-11T01:11:29;4.00;99.90
18888;DHT22;9576;47.792;9.628;2023-03-11T01:14:31;4.00;99.90
18888;DHT22;9576;47.792;9.628;2023-03-11T01:17:32;4.00;99.90
18888;DHT22;9576;47.792;9.628;2023-03-11T01:20:35;3.90;99.90
18888;DHT22;9576;47.792;9.628;2023-03-11T01:23:38;3.90;99.90
18888;DHT22;9576;47.792;9.628;2023-03-11T01:26:41;3.80;99.90
18888;DHT22;9576;47.792;9.628;2023-03-11T01:29:44;3.80;99.90
18888;DHT22;9576;47.792;9.628;2023-03-11T01:32:46;3.80;99.90
18888;DHT22;9576;47.792;9.628;2023-03-11T01:35:48;3.80;99.90
18888;DHT22;9576;47.792;9.628;2023-03-11T01:38:50;3.80;99.90
18888;DHT22;9576;47.792;9.628;2023-03-11T01:41:53;3.80;99.90
18888;DHT22;9576;47.792;9.628;2023-03-11T01:44:55;3.90;99.90
18888;DHT22;9576;47.792;9.628;2023-03-11T01:47:57;3.90;99.90
18888;DHT22;9576;47.792;9.628;2023-03-11T01:51:00;3.90;99.90
18888;DHT22;9576;47.792;9.628;2023-03-11T01:54:04;3.90;99.90
18888;DHT22;9576;47.792;9.628;2023-03-11T01:57:11;3.90;99.90
18888;DHT22;9576;47.792;9.628;2023-03-11T02:00:14;3.80;99.90
18888;DHT22;9576;47.792;9.628;2023-03-11T02:03:18;3.80;99.90
18888;DHT22;9576;47.792;9.628;2023-03-11T02:06:23;3.80;99.90
18888;DHT22;9576;47.792;9.628;2023-03-11T02:09:26;3.80;99.90
18888;DHT22;9576;47.792;9.628;2023-03-11T02:12:33;3.80;99.90
18888;DHT22;9576;47.792;9.628;2023-03-11T02:15:36;3.80;99.90
18888;DHT22;9576;47.792;9.628;2023-03-11T02:18:38;3.90;99.90
18888;DHT22;9576;47.792;9.628;2023-03-11T02:21:41;3.80;99.90
18888;DHT22;9576;47.792;9.628;2023-03-11T02:24:47;3.80;99.90
18888;DHT22;9576;47.792;9.628;2023-03-11T02:27:52;3.80;99.90
18888;DHT22;9576;47.792;9.628;2023-03-11T02:30:55;3.80;99.90
18888;DHT22;9576;47.792;9.628;2023-03-11T02:33:59;3.80;99.90
18888;DHT22;9576;47.792;9.628;2023-03-11T02:37:04;3.70;99.90
18888;DHT22;9576;47.792;9.628;2023-03-11T02:40:33;3.70;99.90
18888;DHT22;9576;47.792;9.628;2023-03-11T02:43:40;3.70;99.90
18888;DHT22;9576;47.792;9.628;2023-03-11T02:46:44;3.80;99.90
18888;DHT22;9576;47.792;9.628;2023-03-11T02:49:46;3.80;99.90
18888;DHT22;9576;47.792;9.628;2023-03-11T02:52:48;3.80;99.90
18888;DHT22;9576;47.792;9.628;2023-03-11T02:55:50;3.80;99.90
18888;DHT22;9576;47.792;9.628;2023-03-11T02:58:54;3.80;99.90
18888;DHT22;9576;47.792;9.628;2023-03-11T03:01:55;3.80;99.90
18888;DHT22;9576;47.792;9.628;2023-03-11T03:04:57;3.80;99.90
18888;DHT22;9576;47.792;9.628;2023-03-11T03:07:59;3.70;99.90
18888;DHT22;9576;47.792;9.628;2023-03-11T03:11:02;3.70;99.90
18888;DHT22;9576;47.792;9.628;2023-03-11T03:14:06;3.80;99.90
18888;DHT22;9576;47.792;9.628;2023-03-11T03:17:07;3.80;99.90
18888;DHT22;9576;47.792;9.628;2023-03-11T03:20:10;3.80;99.90
18888;DHT22;9576;47.792;9.628;2023-03-11T03:23:13;3.70;99.90
18888;DHT22;9576;47.792;9.628;2023-03-11T03:26:15;3.70;99.90
18888;DHT22;9576;47.792;9.628;2023-03-11T03:29:18;3.70;99.90
18888;DHT22;9576;47.792;9.628;2023-03-11T03:32:20;3.70;99.90
18888;DHT22;9576;47.792;9.628;2023-03-11T03:35:22;3.70;99.90
18888;DHT22;9576;47.792;9.628;2023-03-11T03:38:24;3.60;99.90
18888;DHT22;9576;47.792;9.628;2023-03-11T03:41:26;3.60;99.90
18888;DHT22;9576;47.792;9.628;2023-03-11T03:44:29;3.50;99.90
18888;DHT22;9576;47.792;9.628;2023-03-11T03:47:32;3.50;99.90
18888;DHT22;9576;47.792;9.628;2023-03-11T03:50:34;3.50;99.90
18888;DHT22;9576;47.792;9.628;2023-03-11T03:53:36;3.50;99.90
18888;DHT22;9576;47.792;9.628;2023-03-11T03:56:38;3.50;99.90
18888;DHT22;9576;47.792;9.628;2023-03-11T03:59:42;3.40;99.90
18888;DHT22;9576;47.792;9.628;2023-03-11T04:02:44;3.50;99.90
18888;DHT22;9576;47.792;9.628;2023-03-11T04:05:46;3.50;99.90
18888;DHT22;9576;47.792;9.628;2023-03-11T04:08:49;3.50;99.90
18888;DHT22;9576;47.792;9.628;2023-03-11T04:11:52;3.50;99.90
18888;DHT22;9576;47.792;9.628;2023-03-11T04:14:55;3.50;99.90
18888;DHT22;9576;47.792;9.628;2023-03-11T04:17:57;3.50;99.90
18888;DHT22;9576;47.792;9.628;2023-03-11T04:20:59;3.50;99.90
18888;DHT22;9576;47.792;9.628;2023-03-11T04:24:01;3.40;99.90
18888;DHT22;9576;47.792;9.628;2023-03-11T04:27:03;3.40;99.90
18888;DHT22;9576;47.792;9.628;2023-03-11T04:30:08;3.30;99.90
18888;DHT22;9576;47.792;9.628;2023-03-11T04:33:10;3.30;99.90
18888;DHT22;9576;47.792;9.628;2023-03-11T04:36:12;3.30;99.90
18888;DHT22;9576;47.792;9.628;2023-03-11T04:39:14;3.30;99.90
18888;DHT22;9576;47.792;9.628;2023-03-11T04:42:16;3.10;99.90
18888;DHT22;9576;47.792;9.628;2023-03-11T04:45:20;3.00;99.90
18888;DHT22;9576;47.792;9.628;2023-03-11T04:48:22;3.00;99.90
18888;DHT22;9576;47.792;9.628;2023-03-11T04:51:24;2.90;99.90
18888;DHT22;9576;47.792;9.628;2023-03-11T04:54:26;2.90;99.90
18888;DHT22;9576;47.792;9.628;2023-03-11T04:57:28;2.80;99.90
18888;DHT22;9576;47.792;9.628;2023-03-11T05:00:31;2.90;99.90
18888;DHT22;9576;47.792;9.628;2023-03-11T05:03:33;2.80;99.90
18888;DHT22;9576;47.792;9.628;2023-03-11T05:06:35;2.80;99.90
18888;DHT22;9576;47.792;9.628;2023-03-11T05:09:37;2.80;99.90
18888;DHT22;9576;47.792;9.628;2023-03-11T05:12:39;2.80;99.90
18888;DHT22;9576;47.792;9.628;2023-03-11T05:15:43;2.80;99.90
18888;DHT22;9576;47.792;9.628;2023-03-11T05:18:45;2.70;99.90
18888;DHT22;9576;47.792;9.628;2023-03-11T05:21:47;2.70;99.90
18888;DHT22;9576;47.792;9.628;2023-03-11T05:24:49;2.70;99.90
18888;DHT22;9576;47.792;9.628;2023-03-11T05:27:51;2.70;99.90
18888;DHT22;9576;47.792;9.628;2023-03-11T05:30:54;2.70;99.90
18888;DHT22;9576;47.792;9.628;2023-03-11T05:33:56;2.70;99.90
18888;DHT22;9576;47.792;9.628;2023-03-11T05:36:58;2.70;99.90
18888;DHT22;9576;47.792;9.628;2023-03-11T05:40:01;2.60;99.90
18888;DHT22;9576;47.792;9.628;2023-03-11T05:43:06;2.70;99.90
18888;DHT22;9576;47.792;9.628;2023-03-11T05:46:09;2.70;99.90
18888;DHT22;9576;47.792;9.628;2023-03-11T05:49:11;2.80;99.90
18888;DHT22;9576;47.792;9.628;2023-03-11T05:52:13;2.80;99.90
18888;DHT22;9576;47.792;9.628;2023-03-11T05:55:15;2.80;99.90
18888;DHT22;9576;47.792;9.628;2023-03-11T05:58:17;2.80;99.90
18888;DHT22;9576;47.792;9.628;2023-03-11T06:01:20;2.80;99.90
18888;DHT22;9576;47.792;9.628;2023-03-11T06:04:22;2.90;99.90
18888;DHT22;9576;47.792;9.628;2023-03-11T06:07:24;2.80;99.90
18888;DHT22;9576;47.792;9.628;2023-03-11T06:10:26;2.80;99.90
18888;DHT22;9576;47.792;9.628;2023-03-11T06:13:28;2.80;99.90
18888;DHT22;9576;47.792;9.628;2023-03-11T06:16:31;2.70;99.90
18888;DHT22;9576;47.792;9.628;2023-03-11T06:19:33;2.60;99.90
18888;DHT22;9576;47.792;9.628;2023-03-11T06:22:35;2.50;99.90
18888;DHT22;9576;47.792;9.628;2023-03-11T06:25:37;2.40;99.90
18888;DHT22;9576;47.792;9.628;2023-03-11T06:28:40;2.30;99.90
18888;DHT22;9576;47.792;9.628;2023-03-11T06:31:44;2.30;99.90
18888;DHT22;9576;47.792;9.628;2023-03-11T06:34:49;2.30;99.90
18888;DHT22;9576;47.792;9.628;2023-03-11T06:37:51;2.30;99.90
18888;DHT22;9576;47.792;9.628;2023-03-11T06:40:53;2.40;99.90
18888;DHT22;9576;47.792;9.628;2023-03-11T06:43:56;2.40;99.90
18888;DHT22;9576;47.792;9.628;2023-03-11T06:47:02;2.40;99.90
18888;DHT22;9576;47.792;9.628;2023-03-11T06:50:07;2.40;99.90
18888;DHT22;9576;47.792;9.628;2023-03-11T06:53:09;2.40;99.90
18888;DHT22;9576;47.792;9.628;2023-03-11T06:56:12;2.40;99.90
18888;DHT22;9576;47.792;9.628;2023-03-11T06:59:14;2.40;99.90
18888;DHT22;9576;47.792;9.628;2023-03-11T07:02:17;2.40;99.90
18888;DHT22;9576;47.792;9.628;2023-03-11T07:05:19;2.40;99.90
18888;DHT22;9576;47.792;9.628;2023-03-11T07:08:21;2.30;99.90
18888;DHT22;9576;47.792;9.628;2023-03-11T07:11:25;2.20;99.90
18888;DHT22;9576;47.792;9.628;2023-03-11T07:14:27;2.20;99.90
18888;DHT22;9576;47.792;9.628;2023-03-11T07:17:31;2.20;99.90
18888;DHT22;9576;47.792;9.628;2023-03-11T07:20:32;2.30;99.90
18888;DHT22;9576;47.792;9.628;2023-03-11T07:23:35;2.30;99.90
18888;DHT22;9576;47.792;9.628;2023-03-11T07:26:37;2.30;99.90
18888;DHT22;9576;47.792;9.628;2023-03-11T07:29:39;2.30;99.90
18888;DHT22;9576;47.792;9.628;2023-03-11T07:32:42;2.40;99.90
18888;DHT22;9576;47.792;9.628;2023-03-11T07:35:44;2.50;99.90
18888;DHT22;9576;47.792;9.628;2023-03-11T07:38:53;2.70;99.90
18888;DHT22;9576;47.792;9.628;2023-03-11T07:41:55;2.70;99.90
18888;DHT22;9576;47.792;9.628;2023-03-11T07:44:57;2.80;99.90
18888;DHT22;9576;47.792;9.628;2023-03-11T07:48:00;2.90;99.90
18888;DHT22;9576;47.792;9.628;2023-03-11T07:51:03;3.00;99.90
18888;DHT22;9576;47.792;9.628;2023-03-11T07:54:06;3.00;99.90
18888;DHT22;9576;47.792;9.628;2023-03-11T07:57:08;3.10;99.90
18888;DHT22;9576;47.792;9.628;2023-03-11T08:00:17;3.10;99.90
18888;DHT22;9576;47.792;9.628;2023-03-11T08:03:20;3.00;99.90
18888;DHT22;9576;47.792;9.628;2023-03-11T08:06:24;3.00;99.90
18888;DHT22;9576;47.792;9.628;2023-03-11T08:09:26;3.10;99.90
18888;DHT22;9576;47.792;9.628;2023-03-11T08:12:28;3.10;99.90
18888;DHT22;9576;47.792;9.628;2023-03-11T08:15:30;3.10;99.90
18888;DHT22;9576;47.792;9.628;2023-03-11T08:18:34;3.00;99.90
18888;DHT22;9576;47.792;9.628;2023-03-11T08:21:36;2.90;99.90
18888;DHT22;9576;47.792;9.628;2023-03-11T08:24:38;2.90;99.90
18888;DHT22;9576;47.792;9.628;2023-03-11T08:27:39;2.90;99.90
18888;DHT22;9576;47.792;9.628;2023-03-11T08:30:42;2.90;99.90
18888;DHT22;9576;47.792;9.628;2023-03-11T08:33:47;3.00;99.90
18888;DHT22;9576;47.792;9.628;2023-03-11T08:36:49;2.90;99.90
18888;DHT22;9576;47.792;9.628;2023-03-11T08:39:51;2.90;99.90
18888;DHT22;9576;47.792;9.628;2023-03-11T08:42:54;2.90;99.90
18888;DHT22;9576;47.792;9.628;2023-03-11T08:45:59;2.90;99.90
18888;DHT22;9576;47.792;9.628;2023-03-11T08:49:03;3.00;99.90
18888;DHT22;9576;47.792;9.628;2023-03-11T08:52:05;3.20;99.90
18888;DHT22;9576;47.792;9.628;2023-03-11T08:55:08;3.30;99.90
18888;DHT22;9576;47.792;9.628;2023-03-11T08:58:11;3.20;99.90
18888;DHT22;9576;47.792;9.628;2023-03-11T09:01:13;3.30;99.90
18888;DHT22;9576;47.792;9.628;2023-03-11T09:04:16;3.50;99.90
18888;DHT22;9576;47.792;9.628;2023-03-11T09:07:18;3.70;99.90
18888;DHT22;9576;47.792;9.628;2023-03-11T09:10:20;3.80;99.90
18888;DHT22;9576;47.792;9.628;2023-03-11T09:13:22;3.90;99.90
18888;DHT22;9576;47.792;9.628;2023-03-11T09:16:24;4.00;99.90
18888;DHT22;9576;47.792;9.628;2023-03-11T09:19:27;4.10;99.90
18888;DHT22;9576;47.792;9.628;2023-03-11T09:22:29;4.20;99.90
18888;DHT22;9576;47.792;9.628;2023-03-11T09:25:31;4.30;99.90
18888;DHT22;9576;47.792;9.628;2023-03-11T09:28:33;4.40;99.90
18888;DHT22;9576;47.792;9.628;2023-03-11T09:31:35;4.50;99.90
18888;DHT22;9576;47.792;9.628;2023-03-11T09:34:39;4.60;99.90
18888;DHT22;9576;47.792;9.628;2023-03-11T09:37:41;4.60;99.90
18888;DHT22;9576;47.792;9.628;2023-03-11T09:40:51;4.60;99.90
18888;DHT22;9576;47.792;9.628;2023-03-11T09:44:14;4.70;99.90
18888;DHT22;9576;47.792;9.628;2023-03-11T09:47:37;4.60;99.90
18888;DHT22;9576;47.792;9.628;2023-03-11T09:50:43;4.50;99.90
18888;DHT22;9576;47.792;9.628;2023-03-11T09:53:52;4.40;99.90
18888;DHT22;9576;47.792;9.628;2023-03-11T09:56:56;4.30;99.90
18888;DHT22;9576;47.792;9.628;2023-03-11T09:59:59;4.40;99.90
18888;DHT22;9576;47.792;9.628;2023-03-11T10:03:02;4.40;99.90
18888;DHT22;9576;47.792;9.628;2023-03-11T10:06:16;4.60;99.90
18888;DHT22;9576;47.792;9.628;2023-03-11T10:09:30;4.70;99.90
18888;DHT22;9576;47.792;9.628;2023-03-11T10:12:38;4.80;99.90
18888;DHT22;9576;47.792;9.628;2023-03-11T10:15:48;4.60;99.90
18888;DHT22;9576;47.792;9.628;2023-03-11T10:18:58;4.70;99.90
18888;DHT22;9576;47.792;9.628;2023-03-11T10:22:10;4.70;99.90
18888;DHT22;9576;47.792;9.628;2023-03-11T10:25:15;4.70;99.90
18888;DHT22;9576;47.792;9.628;2023-03-11T10:28:19;4.90;99.90
18888;DHT22;9576;47.792;9.628;2023-03-11T10:31:26;5.10;99.90
18888;DHT22;9576;47.792;9.628;2023-03-11T10:34:34;5.00;99.90
18888;DHT22;9576;47.792;9.628;2023-03-11T10:37:42;5.00;99.90
18888;DHT22;9576;47.792;9.628;2023-03-11T10:40:47;5.10;99.90
18888;DHT22;9576;47.792;9.628;2023-03-11T10:43:51;5.10;99.90
18888;DHT22;9576;47.792;9.628;2023-03-11T10:46:55;5.00;99.90
18888;DHT22;9576;47.792;9.628;2023-03-11T10:49:57;5.10;99.90
18888;DHT22;9576;47.792;9.628;2023-03-11T10:53:09;5.20;99.90
18888;DHT22;9576;47.792;9.628;2023-03-11T10:56:24;5.50;99.90
18888;DHT22;9576;47.792;9.628;2023-03-11T10:59:28;5.80;99.90
18888;DHT22;9576;47.792;9.628;2023-03-11T11:02:31;6.00;99.90
18888;DHT22;9576;47.792;9.628;2023-03-11T11:05:33;6.10;99.90
18888;DHT22;9576;47.792;9.628;2023-03-11T11:08:37;6.30;99.90
18888;DHT22;9576;47.792;9.628;2023-03-11T11:11:39;6.50;99.90
18888;DHT22;9576;47.792;9.628;2023-03-11T11:14:45;6.80;99.90
18888;DHT22;9576;47.792;9.628;2023-03-11T11:17:48;6.90;99.90
18888;DHT22;9576;47.792;9.628;2023-03-11T11:20:56;7.00;99.90
18888;DHT22;9576;47.792;9.628;2023-03-11T11:24:09;6.90;99.90
18888;DHT22;9576;47.792;9.628;2023-03-11T11:27:16;7.00;99.90
18888;DHT22;9576;47.792;9.628;2023-03-11T11:30:18;7.20;99.90
18888;DHT22;9576;47.792;9.628;2023-03-11T11:33:22;7.40;99.90
18888;DHT22;9576;47.792;9.628;2023-03-11T11:36:27;7.50;99.90
18888;DHT22;9576;47.792;9.628;2023-03-11T11:39:37;7.60;99.90
18888;DHT22;9576;47.792;9.628;2023-03-11T11:42:44;7.60;99.90
18888;DHT22;9576;47.792;9.628;2023-03-11T11:45:54;7.70;99.90
18888;DHT22;9576;47.792;9.628;2023-03-11T11:49:04;7.80;99.90
18888;DHT22;9576;47.792;9.628;2023-03-11T11:52:10;8.00;99.90
18888;DHT22;9576;47.792;9.628;2023-03-11T11:55:20;8.10;99.90
18888;DHT22;9576;47.792;9.628;2023-03-11T11:58:23;8.40;99.90
18888;DHT22;9576;47.792;9.628;2023-03-11T12:01:34;8.50;99.90
18888;DHT22;9576;47.792;9.628;2023-03-11T12:04:47;8.50;99.90
18888;DHT22;9576;47.792;9.628;2023-03-11T12:07:59;8.50;99.90
18888;DHT22;9576;47.792;9.628;2023-03-11T12:11:05;8.80;99.90
18888;DHT22;9576;47.792;9.628;2023-03-11T12:14:13;8.80;99.90
18888;DHT22;9576;47.792;9.628;2023-03-11T12:17:20;8.80;99.90
18888;DHT22;9576;47.792;9.628;2023-03-11T12:20:26;9.00;99.90
18888;DHT22;9576;47.792;9.628;2023-03-11T12:23:41;9.00;99.90
18888;DHT22;9576;47.792;9.628;2023-03-11T12:26:53;9.40;99.90
18888;DHT22;9576;47.792;9.628;2023-03-11T12:30:02;9.40;99.90
18888;DHT22;9576;47.792;9.628;2023-03-11T12:33:11;9.30;99.90
18888;DHT22;9576;47.792;9.628;2023-03-11T12:36:23;8.80;99.90
18888;DHT22;9576;47.792;9.628;2023-03-11T12:39:28;8.80;99.90
18888;DHT22;9576;47.792;9.628;2023-03-11T12:42:38;8.70;99.90
18888;DHT22;9576;47.792;9.628;2023-03-11T12:45:48;8.50;99.90
18888;DHT22;9576;47.792;9.628;2023-03-11T12:49:08;8.00;99.90
18888;DHT22;9576;47.792;9.628;2023-03-11T12:52:26;7.80;99.90
18888;DHT22;9576;47.792;9.628;2023-03-11T12:55:34;8.20;99.90
18888;DHT22;9576;47.792;9.628;2023-03-11T12:58:56;8.60;99.90
18888;DHT22;9576;47.792;9.628;2023-03-11T13:02:13;8.70;99.90
18888;DHT22;9576;47.792;9.628;2023-03-11T13:05:24;9.30;99.90
18888;DHT22;9576;47.792;9.628;2023-03-11T13:08:32;9.80;99.90
18888;DHT22;9576;47.792;9.628;2023-03-11T13:11:42;9.70;99.90
18888;DHT22;9576;47.792;9.628;2023-03-11T13:14:45;9.80;99.90
18888;DHT22;9576;47.792;9.628;2023-03-11T13:17:59;10.10;99.90
18888;DHT22;9576;47.792;9.628;2023-03-11T13:21:02;10.10;99.90
18888;DHT22;9576;47.792;9.628;2023-03-11T13:27:41;9.80;99.90
18888;DHT22;9576;47.792;9.628;2023-03-11T13:30:51;9.40;99.90
18888;DHT22;9576;47.792;9.628;2023-03-11T13:33:57;9.70;99.90
18888;DHT22;9576;47.792;9.628;2023-03-11T13:37:12;10.40;99.90
18888;DHT22;9576;47.792;9.628;2023-03-11T13:40:28;10.90;99.90
18888;DHT22;9576;47.792;9.628;2023-03-11T13:43:34;11.00;99.90
18888;DHT22;9576;47.792;9.628;2023-03-11T13:46:46;11.20;99.90
18888;DHT22;9576;47.792;9.628;2023-03-11T13:49:52;11.50;99.90
18888;DHT22;9576;47.792;9.628;2023-03-11T13:52:55;11.60;99.90
18888;DHT22;9576;47.792;9.628;2023-03-11T13:55:58;12.10;99.90
18888;DHT22;9576;47.792;9.628;2023-03-11T13:59:16;12.50;99.90
18888;DHT22;9576;47.792;9.628;2023-03-11T14:02:22;12.70;99.90
18888;DHT22;9576;47.792;9.628;2023-03-11T14:05:26;13.00;99.90
18888;DHT22;9576;47.792;9.628;2023-03-11T14:08:32;13.40;99.90
18888;DHT22;9576;47.792;9.628;2023-03-11T14:11:34;13.10;99.90
18888;DHT22;9576;47.792;9.628;2023-03-11T14:14:47;12.70;99.90
18888;DHT22;9576;47.792;9.628;2023-03-11T14:18:30;11.90;99.90
18888;DHT22;9576;47.792;9.628;2023-03-11T14:21:32;11.50;99.90
18888;DHT22;9576;47.792;9.628;2023-03-11T14:24:35;10.80;99.90
18888;DHT22;9576;47.792;9.628;2023-03-11T14:27:38;10.40;99.90
18888;DHT22;9576;47.792;9.628;2023-03-11T14:30:54;10.10;99.90
18888;DHT22;9576;47.792;9.628;2023-03-11T14:34:00;9.50;99.90
18888;DHT22;9576;47.792;9.628;2023-03-11T14:37:24;9.10;99.90
18888;DHT22;9576;47.792;9.628;2023-03-11T14:40:29;8.90;99.90
18888;DHT22;9576;47.792;9.628;2023-03-11T14:43:33;8.80;99.90
18888;DHT22;9576;47.792;9.628;2023-03-11T14:46:38;8.60;99.90
18888;DHT22;9576;47.792;9.628;2023-03-11T14:49:41;8.70;99.90
18888;DHT22;9576;47.792;9.628;2023-03-11T14:52:46;8.60;99.90
18888;DHT22;9576;47.792;9.628;2023-03-11T14:55:50;8.40;99.90
18888;DHT22;9576;47.792;9.628;2023-03-11T14:58:59;8.40;99.90
18888;DHT22;9576;47.792;9.628;2023-03-11T15:02:28;8.50;99.90
18888;DHT22;9576;47.792;9.628;2023-03-11T15:05:36;8.40;99.90
18888;DHT22;9576;47.792;9.628;2023-03-11T15:08:44;8.30;99.90
18888;DHT22;9576;47.792;9.628;2023-03-11T15:11:47;8.30;99.90
18888;DHT22;9576;47.792;9.628;2023-03-11T15:14:50;8.30;99.90
18888;DHT22;9576;47.792;9.628;2023-03-11T15:17:53;8.20;99.90
18888;DHT22;9576;47.792;9.628;2023-03-11T15:21:12;8.30;99.90
18888;DHT22;9576;47.792;9.628;2023-03-11T15:24:19;8.40;99.90
18888;DHT22;9576;47.792;9.628;2023-03-11T15:27:30;8.40;99.90
18888;DHT22;9576;47.792;9.628;2023-03-11T15:30:33;8.40;99.90
18888;DHT22;9576;47.792;9.628;2023-03-11T15:33:41;8.10;99.90
18888;DHT22;9576;47.792;9.628;2023-03-11T15:36:58;7.80;99.90
18888;DHT22;9576;47.792;9.628;2023-03-11T15:40:10;7.60;99.90
18888;DHT22;9576;47.792;9.628;2023-03-11T15:43:21;7.20;99.90
18888;DHT22;9576;47.792;9.628;2023-03-11T15:46:24;6.90;99.90
18888;DHT22;9576;47.792;9.628;2023-03-11T15:49:26;6.70;99.90
18888;DHT22;9576;47.792;9.628;2023-03-11T15:52:30;6.70;99.90
18888;DHT22;9576;47.792;9.628;2023-03-11T15:55:32;6.50;99.90
18888;DHT22;9576;47.792;9.628;2023-03-11T15:58:35;6.50;99.90
18888;DHT22;9576;47.792;9.628;2023-03-11T16:01:37;6.40;99.90
18888;DHT22;9576;47.792;9.628;2023-03-11T16:04:39;6.30;99.90
18888;DHT22;9576;47.792;9.628;2023-03-11T16:07:44;6.20;99.90
18888;DHT22;9576;47.792;9.628;2023-03-11T16:10:46;6.10;99.90
18888;DHT22;9576;47.792;9.628;2023-03-11T16:13:48;6.10;99.90
18888;DHT22;9576;47.792;9.628;2023-03-11T16:16:50;6.00;99.90
18888;DHT22;9576;47.792;9.628;2023-03-11T16:19:52;6.00;99.90
18888;DHT22;9576;47.792;9.628;2023-03-11T16:22:57;5.90;99.90
18888;DHT22;9576;47.792;9.628;2023-03-11T16:26:01;5.70;99.90
18888;DHT22;9576;47.792;9.628;2023-03-11T16:29:04;5.60;99.90
18888;DHT22;9576;47.792;9.628;2023-03-11T16:32:06;5.60;99.90
18888;DHT22;9576;47.792;9.628;2023-03-11T16:35:08;5.60;99.90
18888;DHT22;9576;47.792;9.628;2023-03-11T16:38:13;5.70;99.90
18888;DHT22;9576;47.792;9.628;2023-03-11T16:41:16;5.50;99.90
18888;DHT22;9576;47.792;9.628;2023-03-11T16:44:18;5.40;99.90
18888;DHT22;9576;47.792;9.628;2023-03-11T16:47:20;5.40;99.90
18888;DHT22;9576;47.792;9.628;2023-03-11T16:50:24;5.30;99.90
18888;DHT22;9576;47.792;9.628;2023-03-11T16:53:28;5.20;99.90
18888;DHT22;9576;47.792;9.628;2023-03-11T16:56:30;5.20;99.90
18888;DHT22;9576;47.792;9.628;2023-03-11T16:59:32;5.10;99.90
18888;DHT22;9576;47.792;9.628;2023-03-11T17:02:34;5.20;99.90
18888;DHT22;9576;47.792;9.628;2023-03-11T17:05:36;5.10;99.90
18888;DHT22;9576;47.792;9.628;2023-03-11T17:08:40;5.20;99.90
18888;DHT22;9576;47.792;9.628;2023-03-11T17:11:42;5.20;99.90
18888;DHT22;9576;47.792;9.628;2023-03-11T17:14:44;5.20;99.90
18888;DHT22;9576;47.792;9.628;2023-03-11T17:17:46;5.10;99.90
18888;DHT22;9576;47.792;9.628;2023-03-11T17:20:50;5.20;99.90
18888;DHT22;9576;47.792;9.628;2023-03-11T17:23:55;5.10;99.90
18888;DHT22;9576;47.792;9.628;2023-03-11T17:26:58;5.00;99.90
18888;DHT22;9576;47.792;9.628;2023-03-11T17:30:01;4.90;99.90
18888;DHT22;9576;47.792;9.628;2023-03-11T17:33:03;5.00;99.90
18888;DHT22;9576;47.792;9.628;2023-03-11T17:36:06;4.90;99.90
18888;DHT22;9576;47.792;9.628;2023-03-11T17:39:10;4.90;99.90
18888;DHT22;9576;47.792;9.628;2023-03-11T17:42:12;4.90;99.90
18888;DHT22;9576;47.792;9.628;2023-03-11T17:45:14;4.80;99.90
18888;DHT22;9576;47.792;9.628;2023-03-11T17:48:16;4.70;99.90
18888;DHT22;9576;47.792;9.628;2023-03-11T17:51:22;4.70;99.90
18888;DHT22;9576;47.792;9.628;2023-03-11T17:54:26;4.70;99.90
18888;DHT22;9576;47.792;9.628;2023-03-11T17:57:28;4.70;99.90
18888;DHT22;9576;47.792;9.628;2023-03-11T18:00:30;4.70;99.90
18888;DHT22;9576;47.792;9.628;2023-03-11T18:03:32;4.70;99.90
18888;DHT22;9576;47.792;9.628;2023-03-11T18:06:33;4.60;99.90
18888;DHT22;9576;47.792;9.628;2023-03-11T18:09:37;4.60;99.90
18888;DHT22;9576;47.792;9.628;2023-03-11T18:12:42;4.50;99.90
18888;DHT22;9576;47.792;9.628;2023-03-11T18:15:44;4.50;99.90
18888;DHT22;9576;47.792;9.628;2023-03-11T18:18:47;4.50;99.90
18888;DHT22;9576;47.792;9.628;2023-03-11T18:21:49;4.40;99.90
18888;DHT22;9576;47.792;9.628;2023-03-11T18:24:52;4.40;99.90
18888;DHT22;9576;47.792;9.628;2023-03-11T18:27:55;4.40;99.90
18888;DHT22;9576;47.792;9.628;2023-03-11T18:31:03;4.40;99.90
18888;DHT22;9576;47.792;9.628;2023-03-11T18:34:05;4.40;99.90
18888;DHT22;9576;47.792;9.628;2023-03-11T18:37:12;4.40;99.90
18888;DHT22;9576;47.792;9.628;2023-03-11T18:40:16;4.40;99.90
18888;DHT22;9576;47.792;9.628;2023-03-11T18:43:18;4.40;99.90
18888;DHT22;9576;47.792;9.628;2023-03-11T18:46:20;4.40;99.90
18888;DHT22;9576;47.792;9.628;2023-03-11T18:49:22;4.40;99.90
18888;DHT22;9576;47.792;9.628;2023-03-11T18:52:24;4.30;99.90
18888;DHT22;9576;47.792;9.628;2023-03-11T18:55:27;4.20;99.90
18888;DHT22;9576;47.792;9.628;2023-03-11T18:58:29;4.20;99.90
18888;DHT22;9576;47.792;9.628;2023-03-11T19:01:31;4.20;99.90
18888;DHT22;9576;47.792;9.628;2023-03-11T19:04:33;4.20;99.90
18888;DHT22;9576;47.792;9.628;2023-03-11T19:07:35;4.10;99.90
18888;DHT22;9576;47.792;9.628;2023-03-11T19:10:39;4.10;99.90
18888;DHT22;9576;47.792;9.628;2023-03-11T19:13:41;4.10;99.90
18888;DHT22;9576;47.792;9.628;2023-03-11T19:16:43;4.10;99.90
18888;DHT22;9576;47.792;9.628;2023-03-11T19:19:45;4.10;99.90
18888;DHT22;9576;47.792;9.628;2023-03-11T19:22:47;4.10;99.90
18888;DHT22;9576;47.792;9.628;2023-03-11T19:25:51;4.20;99.90
18888;DHT22;9576;47.792;9.628;2023-03-11T19:28:53;4.20;99.90
18888;DHT22;9576;47.792;9.628;2023-03-11T19:31:55;4.20;99.90
18888;DHT22;9576;47.792;9.628;2023-03-11T19:34:57;4.20;99.90
18888;DHT22;9576;47.792;9.628;2023-03-11T19:37:58;4.30;99.90
18888;DHT22;9576;47.792;9.628;2023-03-11T19:41:04;4.30;99.90
18888;DHT22;9576;47.792;9.628;2023-03-11T19:44:06;4.30;99.90
18888;DHT22;9576;47.792;9.628;2023-03-11T19:47:08;4.30;99.90
18888;DHT22;9576;47.792;9.628;2023-03-11T19:50:10;4.30;99.90
18888;DHT22;9576;47.792;9.628;2023-03-11T19:53:12;4.30;99.90
18888;DHT22;9576;47.792;9.628;2023-03-11T19:56:15;4.30;99.90
18888;DHT22;9576;47.792;9.628;2023-03-11T19:59:17;4.30;99.90
18888;DHT22;9576;47.792;9.628;2023-03-11T20:02:19;4.30;99.90
18888;DHT22;9576;47.792;9.628;2023-03-11T20:05:21;4.30;99.90